sensor_id;sensor_type;location;lat;lon;timestamp;temperature;humidity
13835;DHT22;6988;52.614;13.500;2024-03-23T00:53:58;8.20;99.90
13835;DHT22;6988;52.614;13.500;2024-03-23T00:58:50;8.10;99.90
13835;DHT22;6988;52.614;13.500;2024-03-23T01:03:41;8.10;99.90
13835;DHT22;6988;52.614;13.500;2024-03-23T01:08:33;8.10;99.90
13835;DHT22;6988;52.614;13.500;2024-03-23T01:13:27;8.10;99.90
13835;DHT22;6988;52.614;13.500;2024-03-23T01:18:19;8.10;99.90
13835;DHT22;6988;52.614;13.500;2024-03-23T01:23:12;8.10;99.90
13835;DHT22;6988;52.614;13.500;2024-03-23T01:28:05;8.10;99.90
13835;DHT22;6988;52.614;13.500;2024-03-23T01:32:59;8.10;99.90
13835;DHT22;6988;52.614;13.500;2024-03-23T01:37:53;8.10;99.90
13835;DHT22;6988;52.614;13.500;2024-03-23T01:42:55;8.10;99.90
13835;DHT22;6988;52.614;13.500;2024-03-23T01:47:47;8.10;99.90
13835;DHT22;6988;52.614;13.500;2024-03-23T01:52:40;8.10;99.90
13835;DHT22;6988;52.614;13.500;2024-03-23T01:57:33;8.00;99.90
13835;DHT22;6988;52.614;13.500;2024-03-23T02:02:25;8.00;99.90
13835;DHT22;6988;52.614;13.500;2024-03-23T02:07:17;8.00;99.90
13835;DHT22;6988;52.614;13.500;2024-03-23T02:12:10;7.90;99.90
13835;DHT22;6988;52.614;13.500;2024-03-23T02:17:02;8.10;99.90
13835;DHT22;6988;52.614;13.500;2024-03-23T02:21:54;8.10;99.90
13835;DHT22;6988;52.614;13.500;2024-03-23T02:26:47;8.00;99.90
13835;DHT22;6988;52.614;13.500;2024-03-23T02:31:39;7.90;99.90
13835;DHT22;6988;52.614;13.500;2024-03-23T02:36:31;7.90;99.90
13835;DHT22;6988;52.614;13.500;2024-03-23T02:41:23;7.80;99.90
13835;DHT22;6988;52.614;13.500;2024-03-23T02:46:17;7.80;99.90
13835;DHT22;6988;52.614;13.500;2024-03-23T02:51:11;7.70;99.90
13835;DHT22;6988;52.614;13.500;2024-03-23T02:56:03;7.80;99.90
13835;DHT22;6988;52.614;13.500;2024-03-23T03:00:55;7.70;99.90
13835;DHT22;6988;52.614;13.500;2024-03-23T03:05:55;7.70;99.90
13835;DHT22;6988;52.614;13.500;2024-03-23T03:10:47;7.70;99.90
13835;DHT22;6988;52.614;13.500;2024-03-23T03:15:40;7.70;99.90
13835;DHT22;6988;52.614;13.500;2024-03-23T03:20:31;7.60;99.90
13835;DHT22;6988;52.614;13.500;2024-03-23T03:25:25;7.70;99.90
13835;DHT22;6988;52.614;13.500;2024-03-23T03:30:17;7.70;99.90
13835;DHT22;6988;52.614;13.500;2024-03-23T03:35:09;7.60;99.90
13835;DHT22;6988;52.614;13.500;2024-03-23T03:40:01;7.60;99.90
13835;DHT22;6988;52.614;13.500;2024-03-23T03:44:55;7.60;99.90
13835;DHT22;6988;52.614;13.500;2024-03-23T03:49:47;7.60;99.90
13835;DHT22;6988;52.614;13.500;2024-03-23T03:54:39;7.60;99.90
13835;DHT22;6988;52.614;13.500;2024-03-23T03:59:31;7.60;99.90
13835;DHT22;6988;52.614;13.500;2024-03-23T04:04:24;7.50;99.90
13835;DHT22;6988;52.614;13.500;2024-03-23T04:09:16;7.50;99.90
13835;DHT22;6988;52.614;13.500;2024-03-23T04:14:08;7.50;99.90
13835;DHT22;6988;52.614;13.500;2024-03-23T04:19:00;7.40;99.90
13835;DHT22;6988;52.614;13.500;2024-03-23T04:23:53;7.30;99.90
13835;DHT22;6988;52.614;13.500;2024-03-23T04:28:45;7.20;99.90
13835;DHT22;6988;52.614;13.500;2024-03-23T04:33:37;7.20;99.90
13835;DHT22;6988;52.614;13.500;2024-03-23T04:38:29;7.20;99.90
13835;DHT22;6988;52.614;13.500;2024-03-23T04:43:22;7.30;99.90
13835;DHT22;6988;52.614;13.500;2024-03-23T04:48:14;7.30;99.90
13835;DHT22;6988;52.614;13.500;2024-03-23T04:53:08;7.20;99.90
13835;DHT22;6988;52.614;13.500;2024-03-23T04:57:59;7.30;99.90
13835;DHT22;6988;52.614;13.500;2024-03-23T05:02:53;7.20;99.90
13835;DHT22;6988;52.614;13.500;2024-03-23T05:07:45;7.20;99.90
13835;DHT22;6988;52.614;13.500;2024-03-23T05:12:37;7.10;99.90
13835;DHT22;6988;52.614;13.500;2024-03-23T05:17:29;7.10;99.90
13835;DHT22;6988;52.614;13.500;2024-03-23T05:22:22;7.10;99.90
13835;DHT22;6988;52.614;13.500;2024-03-23T05:27:15;7.00;99.90
13835;DHT22;6988;52.614;13.500;2024-03-23T05:32:07;7.00;99.90
13835;DHT22;6988;52.614;13.500;2024-03-23T05:36:59;7.00;99.90
13835;DHT22;6988;52.614;13.500;2024-03-23T05:41:55;7.00;99.90
13835;DHT22;6988;52.614;13.500;2024-03-23T05:46:46;7.00;99.90
13835;DHT22;6988;52.614;13.500;2024-03-23T05:51:39;7.00;99.90
13835;DHT22;6988;52.614;13.500;2024-03-23T05:56:31;6.90;99.90
13835;DHT22;6988;52.614;13.500;2024-03-23T06:01:24;6.90;99.90
13835;DHT22;6988;52.614;13.500;2024-03-23T06:06:19;6.90;99.90
13835;DHT22;6988;52.614;13.500;2024-03-23T06:11:11;6.90;99.90
13835;DHT22;6988;52.614;13.500;2024-03-23T06:16:04;6.90;99.90
13835;DHT22;6988;52.614;13.500;2024-03-23T06:20:58;6.90;99.90
13835;DHT22;6988;52.614;13.500;2024-03-23T06:25:50;6.90;99.90
13835;DHT22;6988;52.614;13.500;2024-03-23T06:30:42;6.90;99.90
13835;DHT22;6988;52.614;13.500;2024-03-23T06:35:34;7.00;99.90
13835;DHT22;6988;52.614;13.500;2024-03-23T06:40:27;7.00;99.90
13835;DHT22;6988;52.614;13.500;2024-03-23T06:45:19;7.00;99.90
13835;DHT22;6988;52.614;13.500;2024-03-23T06:50:13;7.00;99.90
13835;DHT22;6988;52.614;13.500;2024-03-23T06:55:07;7.00;99.90
13835;DHT22;6988;52.614;13.500;2024-03-23T07:00:01;7.10;99.90
13835;DHT22;6988;52.614;13.500;2024-03-23T07:04:54;7.20;99.90
13835;DHT22;6988;52.614;13.500;2024-03-23T07:09:46;7.20;99.90
13835;DHT22;6988;52.614;13.500;2024-03-23T07:14:39;7.30;99.90
13835;DHT22;6988;52.614;13.500;2024-03-23T07:19:33;7.40;99.90
13835;DHT22;6988;52.614;13.500;2024-03-23T07:24:25;7.40;99.90
13835;DHT22;6988;52.614;13.500;2024-03-23T07:29:17;7.40;99.90
13835;DHT22;6988;52.614;13.500;2024-03-23T07:34:09;7.50;99.90
13835;DHT22;6988;52.614;13.500;2024-03-23T07:39:02;7.50;99.90
13835;DHT22;6988;52.614;13.500;2024-03-23T07:43:54;7.50;99.90
13835;DHT22;6988;52.614;13.500;2024-03-23T07:48:46;7.50;99.90
13835;DHT22;6988;52.614;13.500;2024-03-23T07:53:39;7.40;99.90
13835;DHT22;6988;52.614;13.500;2024-03-23T07:58:34;7.40;99.90
13835;DHT22;6988;52.614;13.500;2024-03-23T08:03:26;7.40;99.90
13835;DHT22;6988;52.614;13.500;2024-03-23T08:08:18;7.30;99.90
13835;DHT22;6988;52.614;13.500;2024-03-23T08:13:10;7.30;99.90
13835;DHT22;6988;52.614;13.500;2024-03-23T08:18:04;7.30;99.90
13835;DHT22;6988;52.614;13.500;2024-03-23T08:22:56;7.20;99.90
13835;DHT22;6988;52.614;13.500;2024-03-23T08:27:48;7.20;99.90
13835;DHT22;6988;52.614;13.500;2024-03-23T08:32:40;7.10;99.90
13835;DHT22;6988;52.614;13.500;2024-03-23T08:37:34;6.90;99.90
13835;DHT22;6988;52.614;13.500;2024-03-23T08:42:26;6.90;99.90
13835;DHT22;6988;52.614;13.500;2024-03-23T08:47:18;6.90;99.90
13835;DHT22;6988;52.614;13.500;2024-03-23T08:52:10;6.90;99.90
13835;DHT22;6988;52.614;13.500;2024-03-23T08:57:03;6.90;99.90
13835;DHT22;6988;52.614;13.500;2024-03-23T09:01:56;6.90;99.90
13835;DHT22;6988;52.614;13.500;2024-03-23T09:06:48;6.80;99.90
13835;DHT22;6988;52.614;13.500;2024-03-23T09:11:40;6.70;99.90
13835;DHT22;6988;52.614;13.500;2024-03-23T09:16:33;6.50;99.90
13835;DHT22;6988;52.614;13.500;2024-03-23T09:21:25;6.50;99.90
13835;DHT22;6988;52.614;13.500;2024-03-23T09:26:17;6.40;99.90
13835;DHT22;6988;52.614;13.500;2024-03-23T09:31:09;6.00;99.90
13835;DHT22;6988;52.614;13.500;2024-03-23T09:36:06;6.10;99.90
13835;DHT22;6988;52.614;13.500;2024-03-23T09:40:59;6.10;99.90
13835;DHT22;6988;52.614;13.500;2024-03-23T09:45:53;6.10;99.90
13835;DHT22;6988;52.614;13.500;2024-03-23T09:50:46;6.10;99.90
13835;DHT22;6988;52.614;13.500;2024-03-23T09:55:41;5.90;99.90
13835;DHT22;6988;52.614;13.500;2024-03-23T10:00:35;5.90;99.90
13835;DHT22;6988;52.614;13.500;2024-03-23T10:05:27;5.90;99.90
13835;DHT22;6988;52.614;13.500;2024-03-23T10:10:21;5.90;99.90
13835;DHT22;6988;52.614;13.500;2024-03-23T10:15:20;6.00;99.90
13835;DHT22;6988;52.614;13.500;2024-03-23T10:20:13;5.80;99.90
13835;DHT22;6988;52.614;13.500;2024-03-23T10:25:12;5.80;99.90
13835;DHT22;6988;52.614;13.500;2024-03-23T10:30:09;5.80;99.90
13835;DHT22;6988;52.614;13.500;2024-03-23T10:35:17;5.80;99.90
13835;DHT22;6988;52.614;13.500;2024-03-23T10:40:11;5.70;99.90
13835;DHT22;6988;52.614;13.500;2024-03-23T10:45:05;5.80;99.90
13835;DHT22;6988;52.614;13.500;2024-03-23T10:49:57;5.80;99.90
13835;DHT22;6988;52.614;13.500;2024-03-23T10:54:51;5.80;99.90
13835;DHT22;6988;52.614;13.500;2024-03-23T10:59:44;5.70;99.90
13835;DHT22;6988;52.614;13.500;2024-03-23T11:04:39;5.70;99.90
13835;DHT22;6988;52.614;13.500;2024-03-23T11:09:40;5.60;99.90
13835;DHT22;6988;52.614;13.500;2024-03-23T11:14:36;5.60;99.90
13835;DHT22;6988;52.614;13.500;2024-03-23T11:19:34;5.70;99.90
13835;DHT22;6988;52.614;13.500;2024-03-23T11:24:27;5.80;99.90
13835;DHT22;6988;52.614;13.500;2024-03-23T11:29:19;5.90;99.90
13835;DHT22;6988;52.614;13.500;2024-03-23T11:34:12;5.90;99.90
13835;DHT22;6988;52.614;13.500;2024-03-23T11:39:13;5.90;99.90
13835;DHT22;6988;52.614;13.500;2024-03-23T11:44:15;6.00;99.90
13835;DHT22;6988;52.614;13.500;2024-03-23T11:49:21;6.20;99.90
13835;DHT22;6988;52.614;13.500;2024-03-23T11:54:14;6.20;99.90
13835;DHT22;6988;52.614;13.500;2024-03-23T11:59:06;6.30;99.90
13835;DHT22;6988;52.614;13.500;2024-03-23T12:03:58;6.40;99.90
13835;DHT22;6988;52.614;13.500;2024-03-23T12:08:51;6.50;99.90
13835;DHT22;6988;52.614;13.500;2024-03-23T12:13:44;6.70;99.90
13835;DHT22;6988;52.614;13.500;2024-03-23T12:18:37;6.90;99.90
13835;DHT22;6988;52.614;13.500;2024-03-23T12:23:30;6.90;99.90
13835;DHT22;6988;52.614;13.500;2024-03-23T12:28:24;7.00;99.90
13835;DHT22;6988;52.614;13.500;2024-03-23T12:33:16;7.00;99.90
13835;DHT22;6988;52.614;13.500;2024-03-23T12:38:08;7.00;99.90
13835;DHT22;6988;52.614;13.500;2024-03-23T12:43:00;7.00;99.90
13835;DHT22;6988;52.614;13.500;2024-03-23T12:47:53;7.00;99.90
13835;DHT22;6988;52.614;13.500;2024-03-23T12:52:46;7.10;99.90
13835;DHT22;6988;52.614;13.500;2024-03-23T12:57:38;7.30;99.90
13835;DHT22;6988;52.614;13.500;2024-03-23T13:02:31;7.40;99.90
13835;DHT22;6988;52.614;13.500;2024-03-23T13:07:26;7.40;99.90
13835;DHT22;6988;52.614;13.500;2024-03-23T13:12:18;7.50;99.90
13835;DHT22;6988;52.614;13.500;2024-03-23T13:17:10;7.60;99.90
13835;DHT22;6988;52.614;13.500;2024-03-23T13:22:03;7.90;99.90
13835;DHT22;6988;52.614;13.500;2024-03-23T13:26:57;8.10;99.90
13835;DHT22;6988;52.614;13.500;2024-03-23T13:31:50;8.10;99.90
13835;DHT22;6988;52.614;13.500;2024-03-23T13:36:43;8.20;99.90
13835;DHT22;6988;52.614;13.500;2024-03-23T13:41:35;8.40;99.90
13835;DHT22;6988;52.614;13.500;2024-03-23T13:46:28;8.80;99.90
13835;DHT22;6988;52.614;13.500;2024-03-23T13:51:23;9.30;99.90
13835;DHT22;6988;52.614;13.500;2024-03-23T13:56:17;9.40;99.90
13835;DHT22;6988;52.614;13.500;2024-03-23T14:01:09;9.50;99.90
13835;DHT22;6988;52.614;13.500;2024-03-23T14:06:03;9.60;99.90
13835;DHT22;6988;52.614;13.500;2024-03-23T14:10:57;9.30;99.90
13835;DHT22;6988;52.614;13.500;2024-03-23T14:15:52;9.40;99.90
13835;DHT22;6988;52.614;13.500;2024-03-23T14:20:44;9.40;99.90
13835;DHT22;6988;52.614;13.500;2024-03-23T14:25:37;9.30;99.90
13835;DHT22;6988;52.614;13.500;2024-03-23T14:30:30;9.00;99.90
13835;DHT22;6988;52.614;13.500;2024-03-23T14:35:22;8.40;99.90
13835;DHT22;6988;52.614;13.500;2024-03-23T14:40:14;7.80;99.90
13835;DHT22;6988;52.614;13.500;2024-03-23T14:45:08;7.10;99.90
13835;DHT22;6988;52.614;13.500;2024-03-23T14:50:02;6.70;99.90
13835;DHT22;6988;52.614;13.500;2024-03-23T14:54:54;6.30;99.90
13835;DHT22;6988;52.614;13.500;2024-03-23T14:59:49;6.00;99.90
13835;DHT22;6988;52.614;13.500;2024-03-23T15:04:43;5.80;99.90
13835;DHT22;6988;52.614;13.500;2024-03-23T15:09:35;5.80;99.90
13835;DHT22;6988;52.614;13.500;2024-03-23T15:14:27;5.90;99.90
13835;DHT22;6988;52.614;13.500;2024-03-23T15:19:19;6.10;99.90
13835;DHT22;6988;52.614;13.500;2024-03-23T15:24:12;6.70;99.90
13835;DHT22;6988;52.614;13.500;2024-03-23T15:29:04;7.10;99.90
13835;DHT22;6988;52.614;13.500;2024-03-23T15:34:01;7.40;99.90
13835;DHT22;6988;52.614;13.500;2024-03-23T15:38:54;7.60;99.90
13835;DHT22;6988;52.614;13.500;2024-03-23T15:43:47;7.80;99.90
13835;DHT22;6988;52.614;13.500;2024-03-23T15:48:39;7.80;99.90
13835;DHT22;6988;52.614;13.500;2024-03-23T15:53:36;7.70;99.90
13835;DHT22;6988;52.614;13.500;2024-03-23T15:58:29;7.60;99.90
13835;DHT22;6988;52.614;13.500;2024-03-23T16:03:24;7.50;99.90
13835;DHT22;6988;52.614;13.500;2024-03-23T16:08:18;7.40;99.90
13835;DHT22;6988;52.614;13.500;2024-03-23T16:13:10;7.50;99.90
13835;DHT22;6988;52.614;13.500;2024-03-23T16:18:02;7.50;99.90
13835;DHT22;6988;52.614;13.500;2024-03-23T16:22:58;7.40;99.90
13835;DHT22;6988;52.614;13.500;2024-03-23T16:27:51;7.40;99.90
13835;DHT22;6988;52.614;13.500;2024-03-23T16:32:42;7.40;99.90
13835;DHT22;6988;52.614;13.500;2024-03-23T16:37:34;7.40;99.90
13835;DHT22;6988;52.614;13.500;2024-03-23T16:42:27;7.30;99.90
13835;DHT22;6988;52.614;13.500;2024-03-23T16:47:19;7.20;99.90
13835;DHT22;6988;52.614;13.500;2024-03-23T16:52:12;7.20;99.90
13835;DHT22;6988;52.614;13.500;2024-03-23T16:57:04;7.20;99.90
13835;DHT22;6988;52.614;13.500;2024-03-23T17:01:57;7.10;99.90
13835;DHT22;6988;52.614;13.500;2024-03-23T17:06:49;7.00;99.90
13835;DHT22;6988;52.614;13.500;2024-03-23T17:11:41;7.00;99.90
13835;DHT22;6988;52.614;13.500;2024-03-23T17:16:33;7.00;99.90
13835;DHT22;6988;52.614;13.500;2024-03-23T17:21:27;6.90;99.90
13835;DHT22;6988;52.614;13.500;2024-03-23T17:26:19;6.90;99.90
13835;DHT22;6988;52.614;13.500;2024-03-23T17:31:15;6.80;99.90
13835;DHT22;6988;52.614;13.500;2024-03-23T17:36:08;6.70;99.90
13835;DHT22;6988;52.614;13.500;2024-03-23T17:41:01;6.70;99.90
13835;DHT22;6988;52.614;13.500;2024-03-23T17:45:54;6.60;99.90
13835;DHT22;6988;52.614;13.500;2024-03-23T17:50:46;6.50;99.90
13835;DHT22;6988;52.614;13.500;2024-03-23T17:55:38;6.40;99.90
13835;DHT22;6988;52.614;13.500;2024-03-23T18:00:31;6.50;99.90
13835;DHT22;6988;52.614;13.500;2024-03-23T18:05:24;6.40;99.90
13835;DHT22;6988;52.614;13.500;2024-03-23T18:10:16;6.40;99.90
13835;DHT22;6988;52.614;13.500;2024-03-23T18:15:08;6.30;99.90
13835;DHT22;6988;52.614;13.500;2024-03-23T18:20:02;6.30;99.90
13835;DHT22;6988;52.614;13.500;2024-03-23T18:24:55;6.40;99.90
13835;DHT22;6988;52.614;13.500;2024-03-23T18:29:47;6.40;99.90
13835;DHT22;6988;52.614;13.500;2024-03-23T18:34:39;6.20;99.90
13835;DHT22;6988;52.614;13.500;2024-03-23T18:39:32;6.10;99.90
13835;DHT22;6988;52.614;13.500;2024-03-23T18:44:24;5.90;99.90
13835;DHT22;6988;52.614;13.500;2024-03-23T18:49:16;5.80;99.90
13835;DHT22;6988;52.614;13.500;2024-03-23T18:54:09;5.80;99.90
13835;DHT22;6988;52.614;13.500;2024-03-23T18:59:02;5.70;99.90
13835;DHT22;6988;52.614;13.500;2024-03-23T19:03:54;5.70;99.90
13835;DHT22;6988;52.614;13.500;2024-03-23T19:08:46;5.60;99.90
13835;DHT22;6988;52.614;13.500;2024-03-23T19:13:37;5.60;99.90
13835;DHT22;6988;52.614;13.500;2024-03-23T19:18:31;5.60;99.90
13835;DHT22;6988;52.614;13.500;2024-03-23T19:23:24;5.60;99.90
13835;DHT22;6988;52.614;13.500;2024-03-23T19:28:16;5.60;99.90
13835;DHT22;6988;52.614;13.500;2024-03-23T19:33:10;5.60;99.90
13835;DHT22;6988;52.614;13.500;2024-03-23T19:38:04;5.50;99.90
13835;DHT22;6988;52.614;13.500;2024-03-23T19:42:55;5.40;99.90
13835;DHT22;6988;52.614;13.500;2024-03-23T19:47:48;5.40;99.90
13835;DHT22;6988;52.614;13.500;2024-03-23T19:52:40;5.30;99.90
13835;DHT22;6988;52.614;13.500;2024-03-23T19:57:33;5.30;99.90
13835;DHT22;6988;52.614;13.500;2024-03-23T20:02:25;5.20;99.90
13835;DHT22;6988;52.614;13.500;2024-03-23T20:07:17;5.10;99.90
13835;DHT22;6988;52.614;13.500;2024-03-23T20:12:09;5.00;99.90
13835;DHT22;6988;52.614;13.500;2024-03-23T20:17:03;4.90;99.90
13835;DHT22;6988;52.614;13.500;2024-03-23T20:21:55;4.80;99.90
13835;DHT22;6988;52.614;13.500;2024-03-23T20:26:47;4.80;99.90
13835;DHT22;6988;52.614;13.500;2024-03-23T20:31:39;4.70;99.90
13835;DHT22;6988;52.614;13.500;2024-03-23T20:36:33;4.70;99.90
13835;DHT22;6988;52.614;13.500;2024-03-23T20:41:25;4.60;99.90
13835;DHT22;6988;52.614;13.500;2024-03-23T20:46:17;4.60;99.90
13835;DHT22;6988;52.614;13.500;2024-03-23T20:51:09;4.60;99.90
13835;DHT22;6988;52.614;13.500;2024-03-23T20:56:04;4.60;99.90
13835;DHT22;6988;52.614;13.500;2024-03-23T21:00:59;4.60;99.90
13835;DHT22;6988;52.614;13.500;2024-03-23T21:05:52;4.60;99.90
13835;DHT22;6988;52.614;13.500;2024-03-23T21:10:48;4.50;99.90
13835;DHT22;6988;52.614;13.500;2024-03-23T21:15:46;4.50;99.90
13835;DHT22;6988;52.614;13.500;2024-03-23T21:20:38;4.50;99.90
13835;DHT22;6988;52.614;13.500;2024-03-23T21:25:30;4.40;99.90
13835;DHT22;6988;52.614;13.500;2024-03-23T21:30:22;4.30;99.90
13835;DHT22;6988;52.614;13.500;2024-03-23T21:35:15;4.30;99.90
13835;DHT22;6988;52.614;13.500;2024-03-23T21:40:08;4.30;99.90
13835;DHT22;6988;52.614;13.500;2024-03-23T21:45:01;4.30;99.90
13835;DHT22;6988;52.614;13.500;2024-03-23T21:49:53;4.30;99.90
13835;DHT22;6988;52.614;13.500;2024-03-23T21:54:46;4.30;99.90
13835;DHT22;6988;52.614;13.500;2024-03-23T21:59:38;4.30;99.90
13835;DHT22;6988;52.614;13.500;2024-03-23T22:04:30;4.30;99.90
13835;DHT22;6988;52.614;13.500;2024-03-23T22:09:21;4.40;99.90
13835;DHT22;6988;52.614;13.500;2024-03-23T22:14:15;4.40;99.90
13835;DHT22;6988;52.614;13.500;2024-03-23T22:19:07;4.30;99.90
13835;DHT22;6988;52.614;13.500;2024-03-23T22:23:58;4.30;99.90
13835;DHT22;6988;52.614;13.500;2024-03-23T22:28:51;4.30;99.90
13835;DHT22;6988;52.614;13.500;2024-03-23T22:33:44;4.30;99.90
13835;DHT22;6988;52.614;13.500;2024-03-23T22:38:36;4.30;99.90
13835;DHT22;6988;52.614;13.500;2024-03-23T22:43:29;4.20;99.90
13835;DHT22;6988;52.614;13.500;2024-03-23T23:04:48;3.90;99.90
13835;DHT22;6988;52.614;13.500;2024-03-23T23:09:40;3.90;99.90
13835;DHT22;6988;52.614;13.500;2024-03-23T23:14:32;3.80;99.90
13835;DHT22;6988;52.614;13.500;2024-03-23T23:19:24;3.80;99.90
13835;DHT22;6988;52.614;13.500;2024-03-23T23:24:20;3.80;99.90
13835;DHT22;6988;52.614;13.500;2024-03-23T23:29:12;3.90;99.90
13835;DHT22;6988;52.614;13.500;2024-03-23T23:34:04;3.90;99.90
13835;DHT22;6988;52.614;13.500;2024-03-23T23:38:55;4.00;99.90
13835;DHT22;6988;52.614;13.500;2024-03-23T23:43:55;4.00;99.90
13835;DHT22;6988;52.614;13.500;2024-03-23T23:48:49;4.00;99.90
13835;DHT22;6988;52.614;13.500;2024-03-23T23:53:41;4.00;99.90
13835;DHT22;6988;52.614;13.500;2024-03-23T23:58:34;4.00;99.90
